createdAt,value
2023-03-14T00:00:55.062Z,99.90
2023-03-14T00:03:21.916Z,99.90
2023-03-14T00:05:48.630Z,99.90
2023-03-14T00:08:15.482Z,99.90
2023-03-14T00:10:42.703Z,99.90
2023-03-14T00:13:09.459Z,99.90
2023-03-14T00:15:36.594Z,99.90
2023-03-14T00:18:03.496Z,99.90
2023-03-14T00:20:30.225Z,99.90
2023-03-14T00:22:56.982Z,99.90
2023-03-14T00:25:23.686Z,99.90
2023-03-14T00:27:52.886Z,99.90
2023-03-14T00:30:19.972Z,99.90
2023-03-14T00:32:46.808Z,99.90
2023-03-14T00:35:13.587Z,99.90
2023-03-14T00:37:40.653Z,99.90
2023-03-14T00:40:08.892Z,99.90
2023-03-14T00:42:36.019Z,99.90
2023-03-14T00:45:02.837Z,99.90
2023-03-14T00:47:29.523Z,99.90
2023-03-14T00:49:56.227Z,99.90
2023-03-14T00:52:22.891Z,99.90
2023-03-14T00:54:49.585Z,99.90
2023-03-14T00:57:16.272Z,99.90
2023-03-14T00:59:42.999Z,99.90
2023-03-14T01:02:09.754Z,99.90
2023-03-14T01:04:38.771Z,99.90
2023-03-14T01:07:05.504Z,99.90
2023-03-14T01:09:32.410Z,99.90
2023-03-14T01:11:59.192Z,99.90
2023-03-14T01:14:25.885Z,99.90
2023-03-14T01:16:52.685Z,99.90
2023-03-14T01:19:19.411Z,99.90
2023-03-14T01:21:46.356Z,99.90
2023-03-14T01:24:13.260Z,99.90
2023-03-14T01:26:40.056Z,99.90
2023-03-14T01:29:06.794Z,99.90
2023-03-14T01:31:33.571Z,99.90
2023-03-14T01:34:00.401Z,99.90
2023-03-14T01:36:27.681Z,99.90
2023-03-14T01:38:55.312Z,99.90
2023-03-14T01:41:24.942Z,99.90
2023-03-14T01:43:52.494Z,99.90
2023-03-14T01:46:26.965Z,99.90
2023-03-14T01:48:58.644Z,99.90
2023-03-14T01:51:31.089Z,99.90
2023-03-14T01:54:25.684Z,99.90
2023-03-14T01:57:29.094Z,99.90
2023-03-14T02:00:12.354Z,99.90
2023-03-14T02:02:51.660Z,99.90
2023-03-14T02:05:23.985Z,99.90
2023-03-14T02:07:53.701Z,99.90
2023-03-14T02:10:24.964Z,99.90
2023-03-14T02:12:54.473Z,99.90
2023-03-14T02:15:21.280Z,99.90
2023-03-14T02:17:48.604Z,99.90
2023-03-14T02:20:36.881Z,99.90
2023-03-14T02:23:04.113Z,99.90
2023-03-14T02:25:54.717Z,99.90
2023-03-14T02:28:21.632Z,99.90
2023-03-14T02:30:48.633Z,99.90
2023-03-14T02:33:20.032Z,99.90
2023-03-14T02:35:56.506Z,99.90
2023-03-14T02:38:26.025Z,99.90
2023-03-14T02:40:52.769Z,99.90
2023-03-14T02:43:19.580Z,99.90
2023-03-14T02:45:50.789Z,99.90
2023-03-14T02:48:21.526Z,99.90
2023-03-14T02:50:51.541Z,99.90
2023-03-14T02:53:30.324Z,99.90
2023-03-14T02:55:57.114Z,99.90
2023-03-14T02:58:24.229Z,99.90
2023-03-14T03:00:50.978Z,99.90
2023-03-14T03:03:18.088Z,99.90
2023-03-14T03:05:48.336Z,99.90
2023-03-14T03:08:15.071Z,99.90
2023-03-14T03:10:42.095Z,99.90
2023-03-14T03:13:08.822Z,99.90
2023-03-14T03:15:35.666Z,99.90
2023-03-14T03:18:02.429Z,99.90
2023-03-14T03:20:29.298Z,99.90
2023-03-14T03:22:56.175Z,99.90
2023-03-14T03:25:22.968Z,99.90
2023-03-14T03:27:49.719Z,99.90
2023-03-14T03:30:17.091Z,99.90
2023-03-14T03:32:43.893Z,99.90
2023-03-14T03:35:10.748Z,99.90
2023-03-14T03:37:37.682Z,99.90
2023-03-14T03:40:08.046Z,99.90
2023-03-14T03:42:35.740Z,99.90
2023-03-14T03:45:04.764Z,99.90
2023-03-14T03:47:32.294Z,99.90
2023-03-14T03:49:59.076Z,99.90
2023-03-14T03:52:25.841Z,99.90
2023-03-14T03:54:52.584Z,99.90
2023-03-14T03:57:19.320Z,99.90
2023-03-14T03:59:45.986Z,99.90
2023-03-14T04:02:12.768Z,99.90
2023-03-14T04:04:39.734Z,99.90
2023-03-14T04:07:06.941Z,99.90
2023-03-14T04:09:33.669Z,99.90
2023-03-14T04:12:00.494Z,99.90
2023-03-14T04:14:27.328Z,99.90
2023-03-14T04:16:54.068Z,99.90
2023-03-14T04:19:21.710Z,99.90
2023-03-14T04:21:48.375Z,99.90
2023-03-14T04:24:15.262Z,99.90
2023-03-14T04:26:42.054Z,99.90
2023-03-14T04:29:08.803Z,99.90
2023-03-14T04:31:35.713Z,99.90
2023-03-14T04:34:02.555Z,99.90
2023-03-14T04:36:29.255Z,99.90
2023-03-14T04:38:56.019Z,99.90
2023-03-14T04:41:22.827Z,99.90
2023-03-14T04:43:49.645Z,99.90
2023-03-14T04:46:16.433Z,99.90
2023-03-14T04:48:43.180Z,99.90
2023-03-14T04:51:09.974Z,99.90
2023-03-14T04:53:37.977Z,99.90
2023-03-14T04:56:05.211Z,99.90
2023-03-14T04:58:31.949Z,99.90
2023-03-14T05:01:04.699Z,99.90
2023-03-14T05:03:31.437Z,99.90
2023-03-14T05:05:59.859Z,99.90
2023-03-14T05:08:27.852Z,99.90
2023-03-14T05:10:55.946Z,99.90
2023-03-14T05:13:24.712Z,99.90
2023-03-14T05:15:51.854Z,99.90
2023-03-14T05:18:19.375Z,99.90
2023-03-14T05:20:46.338Z,99.90
2023-03-14T05:23:13.376Z,99.90
2023-03-14T05:25:40.135Z,99.90
2023-03-14T05:28:06.949Z,99.90
2023-03-14T05:30:34.713Z,99.90
2023-03-14T05:33:01.533Z,99.90
2023-03-14T05:35:28.280Z,99.90
2023-03-14T05:37:55.039Z,99.90
2023-03-14T05:40:21.742Z,99.90
2023-03-14T05:42:48.473Z,99.90
2023-03-14T05:45:15.325Z,99.90
2023-03-14T05:47:42.204Z,99.90
2023-03-14T05:50:09.529Z,99.90
2023-03-14T05:52:36.312Z,99.90
2023-03-14T05:55:03.641Z,99.90
2023-03-14T05:57:30.331Z,99.90
2023-03-14T05:59:57.084Z,99.90
2023-03-14T06:02:23.861Z,99.90
2023-03-14T06:04:50.663Z,99.90
2023-03-14T06:07:17.360Z,99.90
2023-03-14T06:09:44.114Z,99.90
2023-03-14T06:12:10.830Z,99.90
2023-03-14T06:14:37.847Z,99.90
2023-03-14T06:17:04.595Z,99.90
2023-03-14T06:19:31.297Z,99.90
2023-03-14T06:21:58.010Z,99.90
2023-03-14T06:24:24.752Z,99.90
2023-03-14T06:26:51.483Z,99.90
2023-03-14T06:29:18.253Z,99.90
2023-03-14T06:31:44.969Z,99.90
2023-03-14T06:34:11.684Z,99.90
2023-03-14T06:36:38.444Z,99.90
2023-03-14T06:39:05.186Z,99.90
2023-03-14T06:41:33.681Z,99.90
2023-03-14T06:44:00.430Z,99.90
2023-03-14T06:46:27.803Z,99.90
2023-03-14T06:48:55.113Z,99.90
2023-03-14T06:51:22.092Z,99.90
2023-03-14T06:53:48.925Z,99.90
2023-03-14T06:56:15.903Z,99.90
2023-03-14T06:58:42.708Z,99.90
2023-03-14T07:01:26.063Z,99.90
2023-03-14T07:03:52.826Z,99.90
2023-03-14T07:06:19.681Z,99.90
2023-03-14T07:08:46.957Z,99.90
2023-03-14T07:11:13.870Z,99.90
2023-03-14T07:13:41.012Z,99.90
2023-03-14T07:16:08.330Z,99.90
2023-03-14T07:18:35.174Z,99.90
2023-03-14T07:21:01.892Z,99.90
2023-03-14T07:23:28.600Z,99.90
2023-03-14T07:25:55.348Z,99.90
2023-03-14T07:28:22.245Z,99.90
2023-03-14T07:30:49.090Z,99.90
2023-03-14T07:33:16.243Z,99.90
2023-03-14T07:35:43.147Z,99.90
2023-03-14T07:38:09.898Z,99.90
2023-03-14T07:40:36.735Z,99.90
2023-03-14T07:43:03.494Z,99.90
2023-03-14T07:45:30.275Z,99.90
2023-03-14T07:47:58.501Z,99.90
2023-03-14T07:50:26.374Z,99.90
2023-03-14T07:52:53.478Z,99.90
2023-03-14T07:55:20.321Z,99.90
2023-03-14T07:57:47.140Z,99.90
2023-03-14T08:00:16.046Z,99.90
2023-03-14T08:02:43.600Z,99.90
2023-03-14T08:05:11.170Z,99.90
2023-03-14T08:07:37.911Z,99.90
2023-03-14T08:10:06.124Z,99.90
2023-03-14T08:12:32.876Z,99.90
2023-03-14T08:15:00.601Z,99.90
2023-03-14T08:17:28.873Z,99.90
2023-03-14T08:19:55.808Z,99.90
2023-03-14T08:22:22.574Z,99.90
2023-03-14T08:24:49.295Z,99.90
2023-03-14T08:27:16.092Z,99.90
2023-03-14T08:29:43.103Z,99.90
2023-03-14T08:32:10.286Z,99.90
2023-03-14T08:34:37.399Z,99.90
2023-03-14T08:37:06.539Z,99.90
2023-03-14T08:39:38.031Z,99.90
2023-03-14T08:42:04.950Z,99.90
2023-03-14T08:44:31.885Z,99.90
2023-03-14T08:46:58.844Z,99.90
2023-03-14T08:49:25.672Z,99.90
2023-03-14T08:51:52.472Z,99.90
2023-03-14T08:54:19.742Z,99.90
2023-03-14T08:56:46.500Z,99.90
2023-03-14T08:59:13.296Z,99.90
2023-03-14T09:01:39.995Z,99.90
2023-03-14T09:04:07.688Z,99.90
2023-03-14T09:06:34.535Z,99.90
2023-03-14T09:09:01.298Z,99.90
2023-03-14T09:11:28.218Z,99.90
2023-03-14T09:13:54.900Z,99.90
2023-03-14T09:16:21.681Z,99.90
2023-03-14T09:18:48.575Z,99.90
2023-03-14T09:21:16.047Z,99.90
2023-03-14T09:23:43.996Z,99.90
2023-03-14T09:26:11.921Z,99.90
2023-03-14T09:28:38.749Z,99.90
2023-03-14T09:31:10.416Z,99.90
2023-03-14T09:33:37.517Z,99.90
2023-03-14T09:36:05.082Z,99.90
2023-03-14T09:38:33.952Z,99.90
2023-03-14T09:41:03.850Z,99.90
2023-03-14T09:43:35.676Z,99.90
2023-03-14T09:46:03.778Z,99.90
2023-03-14T09:48:34.846Z,99.90
2023-03-14T09:51:07.163Z,99.90
2023-03-14T09:53:46.296Z,99.90
2023-03-14T09:56:27.818Z,99.90
2023-03-14T09:58:58.565Z,99.90
2023-03-14T10:01:31.726Z,99.90
2023-03-14T10:04:04.950Z,99.90
2023-03-14T10:06:32.400Z,99.90
2023-03-14T10:08:59.181Z,99.90
2023-03-14T10:11:26.176Z,99.90
2023-03-14T10:14:13.500Z,99.90
2023-03-14T10:16:47.593Z,99.90
2023-03-14T10:19:17.975Z,99.90
2023-03-14T10:21:50.739Z,99.90
2023-03-14T10:24:23.792Z,99.90
2023-03-14T10:26:55.578Z,99.90
2023-03-14T10:29:25.147Z,99.90
2023-03-14T10:34:33.004Z,99.90
2023-03-14T10:37:23.601Z,99.90
2023-03-14T10:40:06.445Z,99.90
2023-03-14T10:42:35.737Z,99.90
2023-03-14T10:45:22.328Z,99.70
2023-03-14T10:47:52.865Z,99.50
2023-03-14T10:50:29.896Z,99.30
2023-03-14T10:53:02.411Z,98.90
2023-03-14T10:55:39.760Z,98.80
2023-03-14T10:58:17.855Z,98.60
2023-03-14T11:00:45.709Z,98.40
2023-03-14T11:03:15.413Z,98.00
2023-03-14T11:05:54.605Z,97.70
2023-03-14T11:08:44.967Z,97.50
2023-03-14T11:11:23.305Z,97.00
2023-03-14T11:14:01.532Z,97.20
2023-03-14T11:16:54.952Z,97.00
2023-03-14T11:19:49.755Z,96.50
2023-03-14T11:22:22.444Z,96.20
2023-03-14T11:25:08.476Z,95.10
2023-03-14T11:27:44.654Z,94.80
2023-03-14T11:30:17.338Z,94.40
2023-03-14T11:32:53.363Z,94.60
2023-03-14T11:35:35.763Z,94.00
2023-03-14T11:38:26.232Z,94.00
2023-03-14T11:40:56.736Z,93.60
2023-03-14T11:43:29.384Z,93.40
2023-03-14T11:46:02.778Z,92.20
2023-03-14T11:48:57.309Z,91.70
2023-03-14T11:51:34.036Z,91.40
2023-03-14T11:54:25.490Z,91.90
2023-03-14T11:57:04.327Z,91.20
2023-03-14T11:59:50.903Z,91.30
2023-03-14T12:02:20.731Z,91.00
2023-03-14T12:05:17.987Z,90.80
2023-03-14T12:07:48.314Z,90.80
2023-03-14T12:10:15.338Z,90.60
2023-03-14T12:12:42.670Z,90.20
2023-03-14T12:15:21.228Z,89.50
2023-03-14T12:17:53.798Z,88.70
2023-03-14T12:20:26.549Z,88.10
2023-03-14T12:23:11.635Z,87.70
2023-03-14T12:25:38.432Z,88.10
2023-03-14T12:28:31.168Z,88.50
2023-03-14T12:31:17.898Z,88.10
2023-03-14T12:33:45.205Z,87.90
2023-03-14T12:36:41.358Z,86.20
2023-03-14T12:39:49.820Z,85.50
2023-03-14T12:42:44.422Z,85.50
2023-03-14T12:45:25.787Z,86.30
2023-03-14T12:47:55.453Z,86.40
2023-03-14T12:50:30.375Z,86.40
2023-03-14T12:53:17.365Z,85.70
2023-03-14T12:55:52.905Z,84.40
2023-03-14T12:58:40.238Z,83.70
2023-03-14T13:01:16.102Z,84.30
2023-03-14T13:03:57.031Z,84.90
2023-03-14T13:07:09.079Z,83.00
2023-03-14T13:09:37.398Z,81.20
2023-03-14T13:12:16.937Z,81.20
2023-03-14T13:14:52.642Z,81.40
2023-03-14T13:17:34.649Z,81.70
2023-03-14T13:20:12.792Z,81.50
2023-03-14T13:22:39.990Z,80.60
2023-03-14T13:25:10.627Z,80.80
2023-03-14T13:27:37.628Z,79.70
2023-03-14T13:30:24.245Z,79.00
2023-03-14T13:32:52.650Z,80.00
2023-03-14T13:35:30.439Z,80.90
2023-03-14T13:38:11.142Z,81.30
2023-03-14T13:40:39.570Z,81.40
2023-03-14T13:43:28.829Z,80.60
2023-03-14T13:46:15.074Z,80.50
2023-03-14T13:48:48.462Z,79.90
2023-03-14T13:51:21.888Z,79.60
2023-03-14T13:53:51.068Z,80.00
2023-03-14T13:56:23.538Z,80.60
2023-03-14T13:58:50.610Z,81.10
2023-03-14T14:01:20.901Z,81.20
2023-03-14T14:03:52.318Z,81.10
2023-03-14T14:06:28.841Z,80.90
2023-03-14T14:08:57.986Z,81.50
2023-03-14T14:11:59.241Z,82.00
2023-03-14T14:14:48.382Z,81.30
2023-03-14T14:17:23.330Z,81.50
2023-03-14T14:19:50.764Z,82.10
2023-03-14T14:22:18.863Z,81.60
2023-03-14T14:24:46.081Z,81.90
2023-03-14T14:27:27.367Z,82.50
2023-03-14T14:30:04.117Z,83.70
2023-03-14T14:32:41.363Z,84.00
2023-03-14T14:35:11.460Z,83.80
2023-03-14T14:37:45.746Z,83.40
2023-03-14T14:40:23.472Z,83.30
2023-03-14T14:42:51.071Z,83.40
2023-03-14T14:45:19.945Z,82.10
2023-03-14T14:47:56.652Z,82.00
2023-03-14T14:50:35.379Z,79.90
2023-03-14T14:53:26.770Z,78.50
2023-03-14T14:55:56.348Z,77.30
2023-03-14T14:58:30.563Z,76.70
2023-03-14T15:01:17.621Z,76.50
2023-03-14T15:03:46.463Z,76.90
2023-03-14T15:06:15.779Z,77.10
2023-03-14T15:08:45.091Z,77.30
2023-03-14T15:11:20.137Z,77.70
2023-03-14T15:13:46.881Z,77.40
2023-03-14T15:16:16.898Z,77.50
2023-03-14T15:18:46.791Z,77.60
2023-03-14T15:21:13.512Z,77.30
2023-03-14T15:23:40.239Z,77.40
2023-03-14T15:26:14.892Z,77.80
2023-03-14T15:28:41.680Z,77.40
2023-03-14T15:31:13.055Z,77.40
2023-03-14T15:33:39.934Z,76.50
2023-03-14T15:36:17.754Z,75.00
2023-03-14T15:38:44.550Z,74.30
2023-03-14T15:41:11.311Z,74.50
2023-03-14T15:43:38.091Z,75.10
2023-03-14T15:46:07.372Z,75.80
2023-03-14T15:48:34.111Z,76.30
2023-03-14T15:51:00.807Z,76.70
2023-03-14T15:53:27.609Z,76.60
2023-03-14T15:55:54.349Z,77.20
2023-03-14T15:58:22.314Z,77.80
2023-03-14T16:00:49.899Z,77.90
2023-03-14T16:03:16.831Z,77.70
2023-03-14T16:05:43.667Z,77.50
2023-03-14T16:08:10.431Z,77.80
2023-03-14T16:10:37.187Z,78.00
2023-03-14T16:13:03.962Z,78.10
2023-03-14T16:15:30.870Z,77.30
2023-03-14T16:17:57.774Z,77.50
2023-03-14T16:20:25.097Z,78.10
2023-03-14T16:22:51.865Z,78.60
2023-03-14T16:25:19.135Z,78.90
2023-03-14T16:27:46.225Z,79.00
2023-03-14T16:30:16.472Z,79.20
2023-03-14T16:32:45.880Z,79.70
2023-03-14T16:35:12.764Z,79.90
2023-03-14T16:37:39.458Z,80.70
2023-03-14T16:40:12.646Z,80.80
2023-03-14T16:42:54.909Z,80.70
2023-03-14T16:45:26.676Z,80.70
2023-03-14T16:47:53.450Z,79.90
2023-03-14T16:50:20.173Z,79.00
2023-03-14T16:52:49.713Z,79.00
2023-03-14T16:55:16.506Z,79.20
2023-03-14T16:57:43.210Z,79.40
2023-03-14T17:00:12.008Z,78.90
2023-03-14T17:02:39.193Z,79.00
2023-03-14T17:05:06.313Z,79.00
2023-03-14T17:07:33.001Z,78.70
2023-03-14T17:09:59.712Z,78.20
2023-03-14T17:12:26.424Z,77.30
2023-03-14T17:14:53.863Z,77.10
2023-03-14T17:17:20.591Z,77.00
2023-03-14T17:19:47.328Z,77.00
2023-03-14T17:22:23.268Z,77.10
2023-03-14T17:24:50.999Z,77.30
2023-03-14T17:27:20.251Z,77.60
2023-03-14T17:29:48.602Z,78.10
2023-03-14T17:32:16.750Z,78.60
2023-03-14T17:34:43.476Z,79.20
2023-03-14T17:37:10.220Z,79.60
2023-03-14T17:39:38.183Z,80.10
2023-03-14T17:42:05.489Z,80.30
2023-03-14T17:44:32.743Z,80.20
2023-03-14T17:47:00.273Z,79.90
2023-03-14T17:49:27.306Z,79.80
2023-03-14T17:51:54.084Z,79.60
2023-03-14T17:54:20.770Z,79.70
2023-03-14T17:56:48.861Z,79.80
2023-03-14T17:59:16.145Z,79.80
2023-03-14T18:01:43.138Z,80.00
2023-03-14T18:04:10.083Z,80.00
2023-03-14T18:06:36.879Z,80.10
2023-03-14T18:09:04.863Z,80.50
2023-03-14T18:11:31.976Z,80.90
2023-03-14T18:14:01.630Z,81.40
2023-03-14T18:16:28.614Z,81.80
2023-03-14T18:18:57.232Z,82.20
2023-03-14T18:21:24.089Z,82.50
2023-03-14T18:23:50.881Z,82.90
2023-03-14T18:26:18.166Z,83.20
2023-03-14T18:28:45.880Z,83.80
2023-03-14T18:31:18.282Z,84.20
2023-03-14T18:33:47.837Z,84.40
2023-03-14T18:36:14.868Z,84.70
2023-03-14T18:38:43.168Z,85.00
2023-03-14T18:41:12.779Z,85.60
2023-03-14T18:43:39.721Z,86.30
2023-03-14T18:46:06.440Z,86.80
2023-03-14T18:48:33.550Z,87.00
2023-03-14T18:51:01.026Z,87.40
2023-03-14T18:53:32.172Z,87.80
2023-03-14T18:56:00.480Z,88.30
2023-03-14T18:58:28.514Z,88.40
2023-03-14T19:01:01.497Z,88.50
2023-03-14T19:03:29.190Z,88.90
2023-03-14T19:05:57.328Z,89.10
2023-03-14T19:08:25.179Z,89.50
2023-03-14T19:10:54.814Z,89.80
2023-03-14T19:13:25.748Z,90.10
2023-03-14T19:15:52.469Z,90.40
2023-03-14T19:18:19.453Z,90.50
2023-03-14T19:20:57.152Z,90.70
2023-03-14T19:23:24.697Z,90.90
2023-03-14T19:25:55.275Z,91.00
2023-03-14T19:28:23.618Z,90.90
2023-03-14T19:30:51.337Z,91.00
2023-03-14T19:33:19.478Z,91.00
2023-03-14T19:35:47.233Z,91.10
2023-03-14T19:38:14.799Z,91.20
2023-03-14T19:40:43.124Z,91.40
2023-03-14T19:43:10.239Z,91.60
2023-03-14T19:45:37.513Z,91.90
2023-03-14T19:48:06.281Z,92.10
2023-03-14T19:50:34.587Z,92.20
2023-03-14T19:53:03.518Z,92.30
2023-03-14T19:55:34.640Z,92.40
2023-03-14T19:58:01.543Z,92.30
2023-03-14T20:00:28.511Z,92.30
2023-03-14T20:02:55.544Z,92.40
2023-03-14T20:05:24.089Z,92.40
2023-03-14T20:07:51.701Z,92.50
2023-03-14T20:10:22.866Z,92.70
2023-03-14T20:12:51.279Z,92.90
2023-03-14T20:15:19.890Z,93.00
2023-03-14T20:17:47.914Z,93.20
2023-03-14T20:20:15.022Z,93.30
2023-03-14T20:22:41.887Z,93.50
2023-03-14T20:25:11.888Z,93.70
2023-03-14T20:27:39.399Z,93.90
2023-03-14T20:30:09.848Z,94.10
2023-03-14T20:32:37.168Z,94.30
2023-03-14T20:35:04.293Z,94.80
2023-03-14T20:37:30.986Z,94.70
2023-03-14T20:39:57.701Z,94.90
2023-03-14T20:42:26.931Z,95.20
2023-03-14T20:44:54.456Z,95.50
2023-03-14T20:47:21.563Z,95.70
2023-03-14T20:49:48.323Z,95.80
2023-03-14T20:52:15.559Z,95.90
2023-03-14T20:56:36.611Z,96.00
2023-03-14T20:59:03.296Z,95.90
2023-03-14T21:01:30.071Z,96.00
2023-03-14T21:03:56.809Z,96.10
2023-03-14T21:06:23.540Z,96.10
2023-03-14T21:08:50.630Z,96.20
2023-03-14T21:11:17.362Z,96.20
2023-03-14T21:13:44.143Z,96.20
2023-03-14T21:16:10.934Z,96.20
2023-03-14T21:18:37.789Z,96.00
2023-03-14T21:21:04.875Z,95.60
2023-03-14T21:23:34.456Z,95.20
2023-03-14T21:26:02.724Z,94.50
2023-03-14T21:28:29.530Z,94.30
2023-03-14T21:30:56.596Z,94.60
2023-03-14T21:33:23.697Z,95.00
2023-03-14T21:35:53.278Z,95.50
2023-03-14T21:38:20.639Z,96.10
2023-03-14T21:40:49.946Z,96.50
2023-03-14T21:43:19.883Z,96.90
2023-03-14T21:45:48.281Z,97.40
2023-03-14T21:48:15.030Z,97.80
2023-03-14T21:50:42.256Z,97.70
2023-03-14T21:53:09.004Z,98.10
2023-03-14T21:55:35.783Z,98.50
2023-03-14T21:58:02.688Z,98.80
2023-03-14T22:00:29.563Z,99.20
2023-03-14T22:03:12.411Z,99.60
2023-03-14T22:05:42.995Z,99.90
2023-03-14T22:08:09.775Z,99.90
2023-03-14T22:10:36.468Z,99.90
2023-03-14T22:13:03.201Z,99.90
2023-03-14T22:15:29.935Z,99.90
2023-03-14T22:17:56.697Z,99.90
2023-03-14T22:20:23.451Z,99.90
2023-03-14T22:22:50.256Z,99.90
2023-03-14T22:25:17.043Z,99.90
2023-03-14T22:27:43.754Z,99.90
2023-03-14T22:30:11.212Z,99.90
2023-03-14T22:32:38.147Z,99.90
2023-03-14T22:35:05.153Z,99.90
2023-03-14T22:37:31.875Z,99.90
2023-03-14T22:39:58.638Z,99.90
2023-03-14T22:42:46.170Z,99.90
2023-03-14T22:45:21.757Z,99.90
2023-03-14T22:47:48.953Z,99.90
2023-03-14T22:50:15.785Z,99.90
2023-03-14T22:52:42.564Z,99.90
2023-03-14T22:55:09.904Z,99.90
2023-03-14T22:57:37.380Z,99.90
2023-03-14T23:00:12.004Z,99.90
2023-03-14T23:02:40.546Z,99.90
2023-03-14T23:05:07.663Z,99.90
2023-03-14T23:07:34.426Z,99.90
2023-03-14T23:10:01.120Z,99.90
2023-03-14T23:12:27.826Z,99.90
2023-03-14T23:14:54.610Z,99.90
2023-03-14T23:17:21.469Z,99.90
2023-03-14T23:19:48.196Z,99.90
2023-03-14T23:22:15.240Z,99.90
2023-03-14T23:24:41.942Z,99.90
2023-03-14T23:27:08.724Z,99.90
2023-03-14T23:29:35.421Z,99.90
2023-03-14T23:32:02.088Z,99.90
2023-03-14T23:34:28.766Z,99.90
2023-03-14T23:36:55.472Z,99.90
2023-03-14T23:39:22.192Z,99.90
2023-03-14T23:41:48.849Z,99.90
2023-03-14T23:44:15.765Z,99.90
2023-03-14T23:46:42.766Z,99.90
2023-03-14T23:49:09.517Z,99.90
2023-03-14T23:51:36.282Z,99.90
2023-03-14T23:54:03.063Z,99.90
2023-03-14T23:56:29.780Z,99.90
2023-03-14T23:58:56.516Z,99.90
